Geronimo, Oklahoma
Current Conditions -  °F | °C
As of 10:06 PM on Wednesday 17 Dec 2014 (Local Time) from KLAW Reporting Station
Overcast Overcast  
Wind Chill: 35°   Ceiling: 400
Heat Index: 39°   Visibility: 9mi
Dew Point: 37°   Wind: 6mph
Humidity: 93%   Direction: 140°SE
Pressure: 30.14"   Gusts: NA
Location:  34.48°N, 98.38°W
Report Text: KLAW 180406Z 14005KT 9SM OVC004 04/03 A3014 RMK AO2 T00390028
Loading
Personal Weather Stations






























Interactive Weather Map New forecast layout! Learn more

10-Day Weather Forecast

Advertisements
Track Severe Weather on mobile